createdAt,value
2022-12-03T00:00:15.163Z,965.42
2022-12-03T00:01:15.059Z,965.42
2022-12-03T00:02:15.108Z,965.42
2022-12-03T00:03:15.012Z,965.41
2022-12-03T00:04:14.809Z,965.38
2022-12-03T00:05:14.990Z,965.33
2022-12-03T00:06:15.334Z,965.39
2022-12-03T00:07:18.046Z,965.36
2022-12-03T00:08:16.370Z,965.40
2022-12-03T00:09:14.940Z,965.43
2022-12-03T00:10:14.879Z,965.42
2022-12-03T00:11:17.130Z,965.45
2022-12-03T00:12:16.603Z,965.43
2022-12-03T00:13:14.932Z,965.45
2022-12-03T00:14:14.833Z,965.47
2022-12-03T00:15:17.362Z,965.45
2022-12-03T00:16:22.686Z,965.42
2022-12-03T00:17:15.139Z,965.42
2022-12-03T00:18:15.760Z,965.40
2022-12-03T00:19:14.980Z,965.37
2022-12-03T00:20:16.008Z,965.41
2022-12-03T00:21:14.720Z,965.38
2022-12-03T00:22:14.936Z,965.40
2022-12-03T00:23:15.589Z,965.39
2022-12-03T00:24:22.074Z,965.44
2022-12-03T00:25:14.923Z,965.42
2022-12-03T00:26:17.445Z,965.43
2022-12-03T00:27:15.146Z,965.43
2022-12-03T00:28:29.385Z,965.35
2022-12-03T00:29:14.957Z,965.33
2022-12-03T00:30:15.779Z,965.35
2022-12-03T00:31:14.797Z,965.39
2022-12-03T00:32:15.003Z,965.32
2022-12-03T00:33:14.770Z,965.38
2022-12-03T00:34:25.483Z,965.33
2022-12-03T00:35:14.672Z,965.30
2022-12-03T00:36:15.267Z,965.30
2022-12-03T00:37:14.383Z,965.32
2022-12-03T00:38:17.630Z,965.36
2022-12-03T00:39:14.604Z,965.34
2022-12-03T00:40:15.157Z,965.35
2022-12-03T00:41:16.459Z,965.32
2022-12-03T00:42:38.899Z,965.35
2022-12-03T00:43:17.352Z,965.35
2022-12-03T00:44:15.544Z,965.38
2022-12-03T00:45:18.033Z,965.34
2022-12-03T00:46:19.693Z,965.36
2022-12-03T00:47:20.611Z,965.33
2022-12-03T00:48:14.569Z,965.40
2022-12-03T00:49:15.692Z,965.44
2022-12-03T00:50:17.127Z,965.37
2022-12-03T00:51:14.580Z,965.38
2022-12-03T00:52:14.385Z,965.42
2022-12-03T00:53:16.963Z,965.44
2022-12-03T00:54:14.711Z,965.41
2022-12-03T00:55:14.302Z,965.41
2022-12-03T00:56:14.329Z,965.47
2022-12-03T00:57:17.806Z,965.47
2022-12-03T00:58:15.542Z,965.52
2022-12-03T00:59:16.078Z,965.42
2022-12-03T01:00:15.435Z,965.49
2022-12-03T01:01:14.686Z,965.44
2022-12-03T01:02:17.722Z,965.43
2022-12-03T01:03:14.106Z,965.43
2022-12-03T01:04:36.697Z,965.36
2022-12-03T01:05:17.849Z,965.34
2022-12-03T01:06:14.065Z,965.38
2022-12-03T01:07:22.881Z,965.36
2022-12-03T01:08:23.797Z,965.36
2022-12-03T01:09:14.815Z,965.30
2022-12-03T01:10:14.060Z,965.32
2022-12-03T01:11:14.214Z,965.26
2022-12-03T01:12:14.523Z,965.32
2022-12-03T01:13:13.999Z,965.28
2022-12-03T01:14:14.430Z,965.31
2022-12-03T01:15:14.495Z,965.29
2022-12-03T01:16:17.620Z,965.33
2022-12-03T01:17:13.946Z,965.30
2022-12-03T01:18:15.178Z,965.28
2022-12-03T01:19:22.527Z,965.30
2022-12-03T01:20:16.322Z,965.28
2022-12-03T01:21:14.389Z,965.35
2022-12-03T01:22:16.722Z,965.27
2022-12-03T01:23:15.052Z,965.32
2022-12-03T01:24:14.804Z,965.33
2022-12-03T01:25:14.622Z,965.36
2022-12-03T01:26:21.308Z,965.37
2022-12-03T01:27:14.915Z,965.35
2022-12-03T01:28:17.403Z,965.35
2022-12-03T01:29:16.016Z,965.34
2022-12-03T01:30:15.163Z,965.34
2022-12-03T01:31:13.826Z,965.37
2022-12-03T01:33:23.550Z,965.26
2022-12-03T01:34:23.542Z,965.28
2022-12-03T01:35:23.494Z,965.25
2022-12-03T01:36:23.531Z,965.25
2022-12-03T01:37:23.535Z,965.27
2022-12-03T01:38:23.507Z,965.27
2022-12-03T01:39:23.459Z,965.32
2022-12-03T01:40:23.454Z,965.24
2022-12-03T01:41:23.425Z,965.34
2022-12-03T01:42:23.470Z,965.33
2022-12-03T01:43:23.416Z,965.33
2022-12-03T01:44:23.390Z,965.38
2022-12-03T01:45:23.399Z,965.37
2022-12-03T01:46:23.473Z,965.39
2022-12-03T01:47:23.364Z,965.37
2022-12-03T01:48:23.361Z,965.37
2022-12-03T01:49:23.357Z,965.33
2022-12-03T01:50:23.335Z,965.39
2022-12-03T01:51:23.366Z,965.36
2022-12-03T01:52:23.302Z,965.43
2022-12-03T01:53:23.306Z,965.35
2022-12-03T01:54:23.305Z,965.35
2022-12-03T01:55:23.291Z,965.33
2022-12-03T01:56:23.295Z,965.38
2022-12-03T01:57:23.276Z,965.32
2022-12-03T01:58:23.235Z,965.36
2022-12-03T01:59:23.225Z,965.38
2022-12-03T02:00:23.220Z,965.37
2022-12-03T02:01:23.330Z,965.39
2022-12-03T02:02:23.233Z,965.40
2022-12-03T02:03:23.209Z,965.34
2022-12-03T02:04:23.198Z,965.40
2022-12-03T02:05:31.768Z,965.36
2022-12-03T02:06:23.164Z,965.36
2022-12-03T02:07:23.180Z,965.33
2022-12-03T02:08:23.131Z,965.38
2022-12-03T02:09:23.115Z,965.36
2022-12-03T02:10:23.120Z,965.42
2022-12-03T02:11:23.104Z,965.43
2022-12-03T02:12:23.100Z,965.47
2022-12-03T02:13:23.129Z,965.45
2022-12-03T02:14:23.055Z,965.48
2022-12-03T02:15:23.055Z,965.47
2022-12-03T02:16:23.177Z,965.49
2022-12-03T02:17:23.042Z,965.52
2022-12-03T02:18:23.010Z,965.53
2022-12-03T02:19:23.002Z,965.54
2022-12-03T02:20:22.988Z,965.49
2022-12-03T02:21:23.020Z,965.48
2022-12-03T02:22:22.975Z,965.51
2022-12-03T02:23:22.981Z,965.58
2022-12-03T02:24:22.944Z,965.47
2022-12-03T02:25:22.939Z,965.53
2022-12-03T02:26:22.941Z,965.49
2022-12-03T02:27:22.952Z,965.48
2022-12-03T02:28:22.913Z,965.50
2022-12-03T02:29:22.919Z,965.46
2022-12-03T02:30:22.883Z,965.50
2022-12-03T02:31:23.012Z,965.46
2022-12-03T02:32:22.858Z,965.44
2022-12-03T02:33:22.863Z,965.42
2022-12-03T02:34:22.850Z,965.43
2022-12-03T02:35:22.846Z,965.45
2022-12-03T02:36:22.814Z,965.49
2022-12-03T02:37:22.800Z,965.45
2022-12-03T02:38:22.804Z,965.43
2022-12-03T02:39:22.828Z,965.40
2022-12-03T02:40:22.787Z,965.41
2022-12-03T02:41:22.759Z,965.36
2022-12-03T02:42:22.762Z,965.35
2022-12-03T02:43:22.737Z,965.29
2022-12-03T02:44:22.733Z,965.28
2022-12-03T02:45:22.788Z,965.28
2022-12-03T02:46:22.761Z,965.30
2022-12-03T02:47:22.691Z,965.31
2022-12-03T02:48:22.677Z,965.31
2022-12-03T02:49:22.681Z,965.34
2022-12-03T02:50:22.681Z,965.37
2022-12-03T02:51:22.680Z,965.41
2022-12-03T02:52:22.656Z,965.47
2022-12-03T02:53:22.673Z,965.45
2022-12-03T02:54:22.619Z,965.48
2022-12-03T02:55:22.605Z,965.46
2022-12-03T02:56:22.591Z,965.52
2022-12-03T02:57:22.604Z,965.47
2022-12-03T02:58:22.587Z,965.45
2022-12-03T02:59:22.564Z,965.45
2022-12-03T03:00:22.546Z,965.48
2022-12-03T03:01:22.644Z,965.50
2022-12-03T03:02:22.614Z,965.47
2022-12-03T03:03:22.544Z,965.45
2022-12-03T03:04:22.502Z,965.38
2022-12-03T03:05:22.493Z,965.34
2022-12-03T03:06:22.478Z,965.43
2022-12-03T03:07:22.480Z,965.35
2022-12-03T03:08:22.464Z,965.37
2022-12-03T03:09:22.488Z,965.41
2022-12-03T03:10:22.439Z,965.39
2022-12-03T03:11:22.424Z,965.44
2022-12-03T03:12:22.416Z,965.46
2022-12-03T03:13:22.402Z,965.45
2022-12-03T03:14:22.425Z,965.43
2022-12-03T03:15:22.416Z,965.45
2022-12-03T03:16:22.456Z,965.42
2022-12-03T03:17:22.357Z,965.44
2022-12-03T03:18:22.349Z,965.43
2022-12-03T03:19:22.368Z,965.38
2022-12-03T03:20:22.344Z,965.38
2022-12-03T03:21:22.362Z,965.33
2022-12-03T03:22:22.302Z,965.35
2022-12-03T03:23:22.290Z,965.34
2022-12-03T03:24:22.289Z,965.32
2022-12-03T03:25:22.292Z,965.37
2022-12-03T03:26:22.294Z,965.38
2022-12-03T03:27:22.288Z,965.43
2022-12-03T03:28:22.236Z,965.43
2022-12-03T03:29:22.225Z,965.40
2022-12-03T03:30:22.230Z,965.44
2022-12-03T03:31:22.340Z,965.40
2022-12-03T03:32:22.219Z,965.40
2022-12-03T03:33:22.258Z,965.39
2022-12-03T03:34:22.169Z,965.44
2022-12-03T03:35:22.161Z,965.35
2022-12-03T03:36:22.176Z,965.37
2022-12-03T03:37:22.154Z,965.34
2022-12-03T03:38:22.125Z,965.34
2022-12-03T03:39:22.177Z,965.36
2022-12-03T03:40:22.102Z,965.30
2022-12-03T03:41:22.103Z,965.30
2022-12-03T03:42:22.098Z,965.34
2022-12-03T03:43:22.091Z,965.32
2022-12-03T03:44:22.057Z,965.35
2022-12-03T03:45:27.318Z,965.29
2022-12-03T03:46:23.153Z,965.31
2022-12-03T03:47:22.027Z,965.29
2022-12-03T03:48:22.018Z,965.24
2022-12-03T03:49:22.030Z,965.26
2022-12-03T03:50:22.037Z,965.20
2022-12-03T03:51:21.981Z,965.24
2022-12-03T03:52:21.972Z,965.21
2022-12-03T03:53:21.987Z,965.19
2022-12-03T03:54:21.956Z,965.21
2022-12-03T03:55:21.953Z,965.22
2022-12-03T03:56:21.976Z,965.21
2022-12-03T03:57:21.914Z,965.16
2022-12-03T03:58:21.902Z,965.19
2022-12-03T03:59:21.893Z,965.19
2022-12-03T04:00:21.901Z,965.16
2022-12-03T04:01:21.955Z,965.17
2022-12-03T04:02:21.904Z,965.05
2022-12-03T04:03:21.848Z,965.12
2022-12-03T04:04:21.967Z,965.10
2022-12-03T04:05:21.831Z,965.14
2022-12-03T04:06:21.835Z,965.15
2022-12-03T04:07:21.804Z,965.14
2022-12-03T04:08:21.844Z,965.13
2022-12-03T04:09:21.782Z,965.19
2022-12-03T04:10:21.776Z,965.20
2022-12-03T04:11:21.778Z,965.19
2022-12-03T04:12:21.758Z,965.19
2022-12-03T04:13:21.740Z,965.19
2022-12-03T04:14:21.778Z,965.16
2022-12-03T04:15:21.720Z,965.22
2022-12-03T04:16:21.749Z,965.20
2022-12-03T04:17:21.710Z,965.20
2022-12-03T04:18:21.699Z,965.21
2022-12-03T04:19:21.701Z,965.21
2022-12-03T04:20:21.675Z,965.22
2022-12-03T04:21:21.656Z,965.24
2022-12-03T04:22:21.640Z,965.17
2022-12-03T04:23:24.956Z,965.22
2022-12-03T04:24:22.632Z,965.19
2022-12-03T04:25:21.604Z,965.19
2022-12-03T04:26:21.619Z,965.18
2022-12-03T04:27:21.589Z,965.09
2022-12-03T04:28:21.574Z,965.15
2022-12-03T04:29:21.581Z,965.16
2022-12-03T04:30:21.593Z,965.12
2022-12-03T04:31:21.645Z,965.18
2022-12-03T04:32:21.541Z,965.17
2022-12-03T04:33:21.524Z,965.11
2022-12-03T04:34:21.531Z,965.11
2022-12-03T04:35:21.603Z,965.14
2022-12-03T04:36:21.514Z,965.12
2022-12-03T04:37:21.477Z,965.17
2022-12-03T04:38:21.481Z,965.18
2022-12-03T04:39:21.462Z,965.24
2022-12-03T04:40:21.455Z,965.22
2022-12-03T04:41:21.442Z,965.27
2022-12-03T04:42:21.419Z,965.23
2022-12-03T04:43:21.422Z,965.29
2022-12-03T04:44:21.422Z,965.22
2022-12-03T04:45:21.416Z,965.24
2022-12-03T04:46:21.536Z,965.28
2022-12-03T04:47:21.383Z,965.24
2022-12-03T04:48:21.350Z,965.30
2022-12-03T04:49:21.343Z,965.27
2022-12-03T04:50:21.367Z,965.23
2022-12-03T04:51:21.324Z,965.29
2022-12-03T04:52:21.333Z,965.24
2022-12-03T04:53:21.303Z,965.31
2022-12-03T04:54:21.303Z,965.32
2022-12-03T04:55:21.276Z,965.36
2022-12-03T04:56:21.286Z,965.40
2022-12-03T04:57:21.293Z,965.41
2022-12-03T04:58:21.252Z,965.34
2022-12-03T04:59:21.232Z,965.37
2022-12-03T05:00:21.222Z,965.36
2022-12-03T05:01:21.235Z,965.36
2022-12-03T05:02:21.276Z,965.37
2022-12-03T05:03:21.201Z,965.34
2022-12-03T05:04:21.190Z,965.33
2022-12-03T05:05:21.164Z,965.36
2022-12-03T05:06:21.200Z,965.35
2022-12-03T05:07:21.145Z,965.42
2022-12-03T05:08:21.161Z,965.42
2022-12-03T05:09:21.146Z,965.41
2022-12-03T05:10:21.123Z,965.42
2022-12-03T05:11:21.097Z,965.42
2022-12-03T05:12:21.093Z,965.46
2022-12-03T05:13:21.076Z,965.49
2022-12-03T05:14:21.070Z,965.43
2022-12-03T05:15:21.087Z,965.44
2022-12-03T05:16:21.166Z,965.50
2022-12-03T05:17:21.032Z,965.47
2022-12-03T05:18:21.018Z,965.49
2022-12-03T05:19:21.016Z,965.38
2022-12-03T05:20:21.008Z,965.38
2022-12-03T05:21:21.035Z,965.39
2022-12-03T05:22:21.031Z,965.42
2022-12-03T05:23:20.966Z,965.49
2022-12-03T05:24:20.953Z,965.51
2022-12-03T05:25:20.949Z,965.41
2022-12-03T05:26:20.947Z,965.42
2022-12-03T05:27:23.963Z,965.37
2022-12-03T05:28:20.942Z,965.37
2022-12-03T05:29:20.899Z,965.34
2022-12-03T05:30:20.899Z,965.30
2022-12-03T05:31:21.018Z,965.32
2022-12-03T05:32:20.895Z,965.33
2022-12-03T05:33:20.906Z,965.36
2022-12-03T05:34:20.842Z,965.38
2022-12-03T05:35:20.832Z,965.43
2022-12-03T05:36:20.823Z,965.46
2022-12-03T05:37:20.825Z,965.41
2022-12-03T05:38:20.840Z,965.41
2022-12-03T05:39:20.814Z,965.41
2022-12-03T05:40:20.785Z,965.42
2022-12-03T05:41:20.796Z,965.41
2022-12-03T05:42:20.782Z,965.37
2022-12-03T05:43:20.762Z,965.46
2022-12-03T05:44:20.971Z,965.44
2022-12-03T05:45:20.765Z,965.38
2022-12-03T05:46:20.801Z,965.40
2022-12-03T05:47:20.712Z,965.47
2022-12-03T05:48:20.720Z,965.49
2022-12-03T05:49:20.700Z,965.45
2022-12-03T05:50:20.684Z,965.45
2022-12-03T05:51:20.703Z,965.47
2022-12-03T05:52:20.661Z,965.52
2022-12-03T05:53:20.632Z,965.49
2022-12-03T05:54:20.676Z,965.51
2022-12-03T05:55:20.633Z,965.48
2022-12-03T05:56:20.615Z,965.50
2022-12-03T05:57:20.621Z,965.48
2022-12-03T05:58:20.578Z,965.48
2022-12-03T05:59:20.598Z,965.47
2022-12-03T06:00:20.566Z,965.49
2022-12-03T06:01:20.571Z,965.54
2022-12-03T06:02:20.710Z,965.57
2022-12-03T06:03:20.792Z,965.55
2022-12-03T06:04:20.512Z,965.49
2022-12-03T06:05:20.528Z,965.47
2022-12-03T06:06:20.505Z,965.50
2022-12-03T06:07:20.487Z,965.44
2022-12-03T06:08:20.467Z,965.42
2022-12-03T06:09:20.476Z,965.47
2022-12-03T06:10:20.477Z,965.41
2022-12-03T06:11:20.443Z,965.40
2022-12-03T06:12:20.432Z,965.38
2022-12-03T06:13:20.433Z,965.41
2022-12-03T06:14:20.401Z,965.40
2022-12-03T06:15:20.450Z,965.38
2022-12-03T06:16:20.404Z,965.32
2022-12-03T06:17:20.380Z,965.32
2022-12-03T06:18:20.388Z,965.36
2022-12-03T06:19:20.359Z,965.34
2022-12-03T06:20:20.358Z,965.35
2022-12-03T06:21:20.374Z,965.35
2022-12-03T06:22:20.340Z,965.40
2022-12-03T06:23:20.313Z,965.37
2022-12-03T06:24:20.321Z,965.31
2022-12-03T06:25:20.278Z,965.37
2022-12-03T06:26:20.285Z,965.31
2022-12-03T06:27:20.316Z,965.39
2022-12-03T06:28:20.255Z,965.43
2022-12-03T06:29:20.257Z,965.37
2022-12-03T06:30:20.250Z,965.39
2022-12-03T06:31:20.352Z,965.42
2022-12-03T06:32:20.203Z,965.45
2022-12-03T06:33:20.256Z,965.41
2022-12-03T06:34:20.190Z,965.46
2022-12-03T06:35:20.193Z,965.49
2022-12-03T06:36:23.156Z,965.45
2022-12-03T06:37:20.182Z,965.48
2022-12-03T06:38:20.135Z,965.47
2022-12-03T06:39:20.138Z,965.44
2022-12-03T06:40:20.148Z,965.38
2022-12-03T06:41:20.133Z,965.45
2022-12-03T06:42:20.108Z,965.37
2022-12-03T06:43:20.087Z,965.39
2022-12-03T06:44:20.075Z,965.41
2022-12-03T06:45:20.100Z,965.38
2022-12-03T06:46:20.166Z,965.34
2022-12-03T06:47:20.051Z,965.31
2022-12-03T06:48:20.043Z,965.32
2022-12-03T06:49:20.012Z,965.30
2022-12-03T06:50:20.001Z,965.37
2022-12-03T06:51:20.027Z,965.32
2022-12-03T06:52:20.033Z,965.29
2022-12-03T06:53:19.990Z,965.27
2022-12-03T06:54:19.960Z,965.29
2022-12-03T06:55:19.946Z,965.28
2022-12-03T06:56:22.284Z,965.29
2022-12-03T06:57:19.956Z,965.32
2022-12-03T06:58:19.962Z,965.26
2022-12-03T06:59:19.912Z,965.35
2022-12-03T07:00:19.922Z,965.31
2022-12-03T07:01:20.915Z,965.32
2022-12-03T07:02:19.870Z,965.31
2022-12-03T07:03:20.016Z,965.32
2022-12-03T07:04:19.858Z,965.31
2022-12-03T07:05:19.882Z,965.27
2022-12-03T07:06:19.824Z,965.33
2022-12-03T07:07:19.812Z,965.31
2022-12-03T07:08:19.896Z,965.30
2022-12-03T07:09:19.802Z,965.35
2022-12-03T07:10:19.816Z,965.23
2022-12-03T07:11:19.787Z,965.24
2022-12-03T07:12:19.757Z,965.24
2022-12-03T07:13:19.768Z,965.25
2022-12-03T07:14:19.839Z,965.28
2022-12-03T07:15:19.775Z,965.24
2022-12-03T07:16:19.770Z,965.19
2022-12-03T07:17:19.715Z,965.25
2022-12-03T07:18:19.691Z,965.23
2022-12-03T07:19:19.680Z,965.26
2022-12-03T07:20:19.685Z,965.24
2022-12-03T07:21:19.704Z,965.31
2022-12-03T07:22:19.672Z,965.20
2022-12-03T07:23:19.636Z,965.23
2022-12-03T07:24:19.624Z,965.21
2022-12-03T07:25:23.047Z,965.25
2022-12-03T07:26:19.621Z,965.26
2022-12-03T07:27:19.654Z,965.19
2022-12-03T07:28:19.603Z,965.19
2022-12-03T07:29:19.573Z,965.15
2022-12-03T07:30:19.579Z,965.23
2022-12-03T07:31:19.622Z,965.18
2022-12-03T07:32:19.539Z,965.14
2022-12-03T07:33:19.569Z,965.18
2022-12-03T07:34:19.534Z,965.17
2022-12-03T07:35:19.503Z,965.16
2022-12-03T07:36:19.492Z,965.06
2022-12-03T07:37:23.076Z,965.11
2022-12-03T07:38:19.496Z,965.06
2022-12-03T07:39:19.502Z,965.11
2022-12-03T07:40:19.446Z,965.06
2022-12-03T07:41:19.437Z,965.02
2022-12-03T07:42:19.453Z,965.08
2022-12-03T07:43:19.428Z,965.06
2022-12-03T07:44:19.412Z,965.07
2022-12-03T07:45:19.429Z,965.09
2022-12-03T07:46:19.439Z,965.08
2022-12-03T07:47:19.394Z,965.06
2022-12-03T07:48:19.358Z,965.15
2022-12-03T07:49:19.345Z,965.16
2022-12-03T07:50:19.441Z,965.20
2022-12-03T07:51:19.365Z,965.18
2022-12-03T07:52:19.315Z,965.17
2022-12-03T07:53:19.306Z,965.21
2022-12-03T07:54:19.330Z,965.24
2022-12-03T07:55:19.288Z,965.20
2022-12-03T07:56:19.287Z,965.24
2022-12-03T07:57:19.292Z,965.23
2022-12-03T07:58:19.245Z,965.20
2022-12-03T07:59:19.233Z,965.18
2022-12-03T08:00:19.238Z,965.21
2022-12-03T08:01:19.324Z,965.24
2022-12-03T08:02:21.636Z,965.22
2022-12-03T08:03:19.221Z,965.27
2022-12-03T08:04:19.179Z,965.23
2022-12-03T08:05:19.169Z,965.20
2022-12-03T08:06:19.177Z,965.30
2022-12-03T08:07:19.155Z,965.25
2022-12-03T08:08:19.200Z,965.30
2022-12-03T08:09:19.173Z,965.24
2022-12-03T08:10:19.116Z,965.36
2022-12-03T08:11:19.120Z,965.33
2022-12-03T08:12:19.090Z,965.38
2022-12-03T08:13:19.094Z,965.34
2022-12-03T08:14:19.091Z,965.37
2022-12-03T08:15:19.074Z,965.31
2022-12-03T08:16:19.179Z,965.28
2022-12-03T08:17:19.081Z,965.31
2022-12-03T08:18:19.040Z,965.26
2022-12-03T08:19:19.020Z,965.28
2022-12-03T08:20:19.002Z,965.25
2022-12-03T08:21:19.059Z,965.23
2022-12-03T08:22:18.981Z,965.29
2022-12-03T08:23:18.987Z,965.28
2022-12-03T08:24:18.962Z,965.19
2022-12-03T08:25:18.956Z,965.19
2022-12-03T08:26:18.934Z,965.18
2022-12-03T08:27:18.969Z,965.23
2022-12-03T08:28:18.956Z,965.24
2022-12-03T08:29:18.939Z,965.26
2022-12-03T08:30:18.950Z,965.29
2022-12-03T08:31:18.939Z,965.26
2022-12-03T08:32:18.888Z,965.21
2022-12-03T08:33:18.878Z,965.20
2022-12-03T08:34:18.879Z,965.18
2022-12-03T08:35:18.868Z,965.15
2022-12-03T08:36:18.845Z,965.20
2022-12-03T08:37:18.809Z,965.17
2022-12-03T08:38:18.801Z,965.03
2022-12-03T08:39:18.793Z,965.06
2022-12-03T08:40:18.798Z,965.06
2022-12-03T08:41:18.772Z,965.11
2022-12-03T08:42:18.769Z,965.12
2022-12-03T08:43:18.742Z,965.10
2022-12-03T08:44:18.753Z,965.08
2022-12-03T08:45:18.746Z,965.09
2022-12-03T08:46:18.824Z,965.06
2022-12-03T08:47:18.709Z,965.05
2022-12-03T08:48:18.702Z,965.09
2022-12-03T08:49:18.675Z,965.08
2022-12-03T08:50:18.682Z,965.12
2022-12-03T08:51:18.681Z,965.15
2022-12-03T08:52:18.673Z,965.19
2022-12-03T08:53:18.650Z,965.19
2022-12-03T08:54:18.619Z,965.18
2022-12-03T08:55:18.623Z,965.25
2022-12-03T08:56:18.599Z,965.23
2022-12-03T08:57:18.625Z,965.22
2022-12-03T08:58:18.580Z,965.35
2022-12-03T08:59:18.574Z,965.34
2022-12-03T09:00:18.578Z,965.34
2022-12-03T09:01:18.675Z,965.31
2022-12-03T09:02:18.550Z,965.30
2022-12-03T09:03:18.550Z,965.38
2022-12-03T09:04:18.671Z,965.29
2022-12-03T09:05:18.516Z,965.24
2022-12-03T09:06:18.503Z,965.25
2022-12-03T09:07:18.508Z,965.29
2022-12-03T09:08:18.599Z,965.28
2022-12-03T09:09:18.498Z,965.35
2022-12-03T09:10:18.456Z,965.25
2022-12-03T09:11:18.460Z,965.34
2022-12-03T09:12:18.460Z,965.27
2022-12-03T09:13:18.414Z,965.24
2022-12-03T09:14:19.072Z,965.25
2022-12-03T09:15:18.412Z,965.28
2022-12-03T09:16:19.374Z,965.24
2022-12-03T09:17:18.405Z,965.25
2022-12-03T09:18:18.354Z,965.26
2022-12-03T09:19:18.347Z,965.29
2022-12-03T09:20:18.352Z,965.21
2022-12-03T09:21:18.345Z,965.25
2022-12-03T09:22:18.343Z,965.23
2022-12-03T09:23:18.333Z,965.24
2022-12-03T09:24:18.288Z,965.24
2022-12-03T09:25:18.280Z,965.25
2022-12-03T09:26:18.291Z,965.27
2022-12-03T09:27:18.291Z,965.26
2022-12-03T09:28:18.270Z,965.32
2022-12-03T09:29:18.229Z,965.23
2022-12-03T09:30:18.219Z,965.29
2022-12-03T09:31:18.282Z,965.26
2022-12-03T09:32:18.926Z,965.21
2022-12-03T09:33:18.205Z,965.27
2022-12-03T09:34:18.195Z,965.25
2022-12-03T09:35:18.167Z,965.17
2022-12-03T09:36:18.154Z,965.12
2022-12-03T09:37:18.173Z,965.13
2022-12-03T09:38:18.187Z,965.08
2022-12-03T09:39:18.125Z,965.08
2022-12-03T09:40:18.141Z,965.09
2022-12-03T09:41:18.095Z,965.04
2022-12-03T09:42:18.087Z,965.03
2022-12-03T09:43:18.096Z,965.05
2022-12-03T09:44:18.496Z,965.11
2022-12-03T09:45:18.088Z,965.12
2022-12-03T09:46:18.099Z,965.08
2022-12-03T09:47:18.046Z,965.12
2022-12-03T09:48:18.020Z,965.09
2022-12-03T09:49:18.030Z,965.13
2022-12-03T09:50:18.006Z,965.15
2022-12-03T09:51:18.012Z,965.17
2022-12-03T09:52:17.979Z,965.14
2022-12-03T09:53:17.962Z,965.18
2022-12-03T09:54:17.972Z,965.14
2022-12-03T09:55:17.977Z,965.13
2022-12-03T09:56:17.946Z,965.08
2022-12-03T09:57:17.966Z,965.06
2022-12-03T09:58:17.909Z,965.11
2022-12-03T09:59:17.896Z,965.12
2022-12-03T10:00:17.910Z,965.11
2022-12-03T10:01:18.040Z,965.13
2022-12-03T10:02:17.871Z,965.07
2022-12-03T10:03:17.899Z,965.09
2022-12-03T10:04:17.938Z,965.08
2022-12-03T10:05:17.843Z,965.03
2022-12-03T10:06:17.832Z,965.00
2022-12-03T10:07:17.855Z,965.03
2022-12-03T10:08:17.852Z,965.01
2022-12-03T10:09:17.850Z,965.01
2022-12-03T10:10:17.796Z,965.00
2022-12-03T10:11:17.764Z,964.96
2022-12-03T10:12:17.747Z,964.91
2022-12-03T10:13:21.026Z,964.93
2022-12-03T10:14:18.741Z,964.89
2022-12-03T10:15:17.786Z,964.90
2022-12-03T10:16:17.763Z,964.91
2022-12-03T10:17:17.768Z,964.94
2022-12-03T10:18:17.682Z,964.91
2022-12-03T10:19:17.690Z,964.86
2022-12-03T10:20:17.658Z,964.82
2022-12-03T10:21:17.670Z,964.80
2022-12-03T10:22:17.633Z,964.79
2022-12-03T10:23:17.639Z,964.79
2022-12-03T10:24:17.647Z,964.74
2022-12-03T10:25:17.623Z,964.77
2022-12-03T10:26:17.606Z,964.79
2022-12-03T10:27:17.631Z,964.73
2022-12-03T10:28:17.568Z,964.68
2022-12-03T10:29:17.556Z,964.62
2022-12-03T10:30:17.566Z,964.57
2022-12-03T10:31:17.605Z,964.55
2022-12-03T10:32:17.530Z,964.57
2022-12-03T10:33:19.052Z,964.56
2022-12-03T10:34:17.507Z,964.58
2022-12-03T10:35:17.490Z,964.57
2022-12-03T10:36:17.485Z,964.56
2022-12-03T10:37:17.482Z,964.66
2022-12-03T10:38:17.457Z,964.56
2022-12-03T10:39:17.472Z,964.56
2022-12-03T10:40:17.490Z,964.55
2022-12-03T10:41:17.428Z,964.60
2022-12-03T10:42:17.427Z,964.55
2022-12-03T10:43:17.427Z,964.57
2022-12-03T10:44:17.409Z,964.58
2022-12-03T10:45:17.399Z,964.57
2022-12-03T10:46:17.604Z,964.57
2022-12-03T10:47:17.566Z,964.49
2022-12-03T10:48:17.372Z,964.48
2022-12-03T10:49:17.331Z,964.54
2022-12-03T10:50:17.435Z,964.50
2022-12-03T10:51:17.334Z,964.52
2022-12-03T10:52:22.606Z,964.51
2022-12-03T10:53:18.316Z,964.52
2022-12-03T10:54:17.306Z,964.54
2022-12-03T10:55:17.273Z,964.49
2022-12-03T10:56:17.252Z,964.52
2022-12-03T10:57:17.270Z,964.50
2022-12-03T10:58:17.273Z,964.48
2022-12-03T10:59:17.232Z,964.41
2022-12-03T11:00:17.365Z,964.50
2022-12-03T11:01:17.286Z,964.47
2022-12-03T11:02:17.184Z,964.46
2022-12-03T11:03:17.287Z,964.44
2022-12-03T11:04:17.181Z,964.41
2022-12-03T11:05:17.170Z,964.36
2022-12-03T11:06:17.141Z,964.34
2022-12-03T11:07:17.143Z,964.33
2022-12-03T11:08:17.283Z,964.33
2022-12-03T11:09:17.106Z,964.30
2022-12-03T11:10:17.279Z,964.31
2022-12-03T11:11:17.087Z,964.30
2022-12-03T11:12:17.072Z,964.34
2022-12-03T11:13:17.062Z,964.33
2022-12-03T11:14:22.820Z,964.35
2022-12-03T11:15:18.056Z,964.28
2022-12-03T11:16:17.109Z,964.34
2022-12-03T11:17:17.017Z,964.33
2022-12-03T11:18:17.012Z,964.29
2022-12-03T11:19:17.021Z,964.34
2022-12-03T11:20:22.347Z,964.26
2022-12-03T11:21:18.004Z,964.24
2022-12-03T11:22:17.002Z,964.27
2022-12-03T11:23:16.950Z,964.20
2022-12-03T11:24:16.939Z,964.21
2022-12-03T11:25:16.959Z,964.21
2022-12-03T11:26:19.310Z,964.18
2022-12-03T11:27:16.921Z,964.21
2022-12-03T11:28:16.933Z,964.23
2022-12-03T11:29:16.883Z,964.26
2022-12-03T11:30:16.884Z,964.21
2022-12-03T11:31:16.976Z,964.22
2022-12-03T11:32:16.849Z,964.28
2022-12-03T11:33:16.847Z,964.33
2022-12-03T11:34:16.865Z,964.34
2022-12-03T11:35:16.822Z,964.39
2022-12-03T11:36:16.802Z,964.34
2022-12-03T11:37:16.814Z,964.34
2022-12-03T11:38:16.794Z,964.31
2022-12-03T11:39:16.781Z,964.27
2022-12-03T11:40:16.794Z,964.29
2022-12-03T11:41:16.746Z,964.29
2022-12-03T11:42:16.767Z,964.22
2022-12-03T11:43:16.723Z,964.24
2022-12-03T11:44:16.726Z,964.26
2022-12-03T11:45:16.723Z,964.15
2022-12-03T11:46:16.819Z,964.19
2022-12-03T11:47:16.678Z,964.27
2022-12-03T11:48:16.714Z,964.30
2022-12-03T11:49:16.657Z,964.27
2022-12-03T11:50:16.650Z,964.27
2022-12-03T11:51:16.635Z,964.25
2022-12-03T11:52:16.676Z,964.19
2022-12-03T11:53:16.641Z,964.25
2022-12-03T11:54:16.615Z,964.24
2022-12-03T11:55:16.596Z,964.29
2022-12-03T11:56:16.597Z,964.27
2022-12-03T11:57:16.566Z,964.20
2022-12-03T11:58:16.604Z,964.17
2022-12-03T11:59:16.546Z,964.20
2022-12-03T12:00:16.531Z,964.18
2022-12-03T12:01:16.540Z,964.20
2022-12-03T12:02:16.558Z,964.12
2022-12-03T12:03:16.662Z,964.10
2022-12-03T12:04:16.587Z,964.15
2022-12-03T12:05:16.484Z,964.14
2022-12-03T12:06:25.403Z,964.09
2022-12-03T12:07:16.459Z,964.13
2022-12-03T12:08:16.554Z,964.15
2022-12-03T12:09:16.431Z,964.14
2022-12-03T12:10:16.433Z,964.17
2022-12-03T12:11:16.430Z,964.16
2022-12-03T12:12:16.434Z,964.17
2022-12-03T12:13:16.399Z,964.17
2022-12-03T12:14:16.420Z,964.16
2022-12-03T12:15:16.365Z,964.19
2022-12-03T12:16:16.447Z,964.12
2022-12-03T12:17:16.368Z,964.17
2022-12-03T12:18:16.381Z,964.10
2022-12-03T12:19:16.382Z,964.12
2022-12-03T12:20:16.338Z,964.17
2022-12-03T12:21:16.341Z,964.18
2022-12-03T12:22:16.305Z,964.15
2022-12-03T12:23:16.304Z,964.18
2022-12-03T12:24:16.269Z,964.19
2022-12-03T12:25:16.266Z,964.09
2022-12-03T12:26:16.300Z,964.12
2022-12-03T12:27:16.291Z,964.09
2022-12-03T12:28:16.239Z,964.00
2022-12-03T12:29:16.207Z,964.00